地図

経路データ

SID SEASON NUMBER BASIN SUBBASIN NAME ISO_TIME NATURE LAT LON WMO_WIND WMO_PRES WMO_AGENCY TRACK_TYPE DIST2LAND LANDFALL IFLAG USA_AGENCY USA_ATCF_ID USA_LAT USA_LON USA_RECORD USA_STATUS USA_WIND USA_PRES USA_SSHS USA_R34_NE USA_R34_SE USA_R34_SW USA_R34_NW USA_R50_NE USA_R50_SE USA_R50_SW USA_R50_NW USA_R64_NE USA_R64_SE USA_R64_SW USA_R64_NW USA_POCI USA_ROCI USA_RMW USA_EYE TOKYO_LAT TOKYO_LON TOKYO_GRADE TOKYO_WIND TOKYO_PRES TOKYO_R50_DIR TOKYO_R50_LONG TOKYO_R50_SHORT TOKYO_R30_DIR TOKYO_R30_LONG TOKYO_R30_SHORT TOKYO_LAND CMA_LAT CMA_LON CMA_CAT CMA_WIND CMA_PRES HKO_LAT HKO_LON HKO_CAT HKO_WIND HKO_PRES NEWDELHI_LAT NEWDELHI_LON NEWDELHI_GRADE NEWDELHI_WIND NEWDELHI_PRES NEWDELHI_CI NEWDELHI_DP NEWDELHI_POCI REUNION_LAT REUNION_LON REUNION_TYPE REUNION_WIND REUNION_PRES REUNION_TNUM REUNION_CI REUNION_RMW REUNION_R34_NE REUNION_R34_SE REUNION_R34_SW REUNION_R34_NW REUNION_R50_NE REUNION_R50_SE REUNION_R50_SW REUNION_R50_NW REUNION_R64_NE REUNION_R64_SE REUNION_R64_SW REUNION_R64_NW BOM_LAT BOM_LON BOM_TYPE BOM_WIND BOM_PRES BOM_TNUM BOM_CI BOM_RMW BOM_R34_NE BOM_R34_SE BOM_R34_SW BOM_R34_NW BOM_R50_NE BOM_R50_SE BOM_R50_SW BOM_R50_NW BOM_R64_NE BOM_R64_SE BOM_R64_SW BOM_R64_NW BOM_ROCI BOM_POCI BOM_EYE BOM_POS_METHOD BOM_PRES_METHOD NADI_LAT NADI_LON NADI_CAT NADI_WIND NADI_PRES WELLINGTON_LAT WELLINGTON_LON WELLINGTON_WIND WELLINGTON_PRES DS824_LAT DS824_LON DS824_STAGE DS824_WIND DS824_PRES TD9636_LAT TD9636_LON TD9636_STAGE TD9636_WIND TD9636_PRES TD9635_LAT TD9635_LON TD9635_WIND TD9635_PRES TD9635_ROCI NEUMANN_LAT NEUMANN_LON NEUMANN_CLASS NEUMANN_WIND NEUMANN_PRES MLC_LAT MLC_LON MLC_CLASS MLC_WIND MLC_PRES USA_GUST BOM_GUST BOM_GUST_PER REUNION_GUST REUNION_GUST_PER USA_SEAHGT USA_SEARAD_NE USA_SEARAD_SE USA_SEARAD_SW USA_SEARAD_NW STORM_SPEED STORM_DIR
1949122S23105 1949 27 SI WA NOT_NAMED 1949-05-01 12:00:00 NR -23.4000 105.400 main 820 800 __________O___ -1 -23.4000 105.400 7 3 107
1949122S23105 1949 27 SI WA NOT_NAMED 1949-05-01 15:00:00 NR -23.4470 105.567 main 800 788 __________P___ -1 -23.4470 105.567 7 3 109
1949122S23105 1949 27 SI WA NOT_NAMED 1949-05-01 18:00:00 NR -23.5052 105.738 main 788 766 __________P___ -1 -23.5052 105.738 7 3 114
1949122S23105 1949 27 SI WA NOT_NAMED 1949-05-01 21:00:00 NR -23.5857 105.914 main 766 744 __________P___ -1 -23.5857 105.914 7 4 121
1949122S23105 1949 27 SI WA NOT_NAMED 1949-05-02 00:00:00 NR -23.7000 106.100 main 744 723 __________O___ -1 -23.7000 106.100 7 4 127
1949122S23105 1949 27 SI WA NOT_NAMED 1949-05-02 03:00:00 NR -23.8542 106.298 main 722 700 __________P___ -1 -23.8542 106.298 7 5 132
1949122S23105 1949 27 SI WA NOT_NAMED 1949-05-02 06:00:00 NR -24.0348 106.512 main 700 678 __________P___ -1 -24.0348 106.512 7 6 132
1949122S23105 1949 27 SI WA NOT_NAMED 1949-05-02 09:00:00 NR -24.2229 106.745 main 678 647 __________P___ -1 -24.2229 106.745 7 6 129
1949122S23105 1949 27 SI WA NOT_NAMED 1949-05-02 12:00:00 NR -24.4000 107.000 main 647 627 __________O___ -1 -24.4000 107.000 7 6 136
1949122S23105 1949 27 SI WA NOT_NAMED 1949-05-02 15:00:00 NR -24.6683 107.223 main 627 596 __________P___ -1 -24.6683 107.223 7 7 139
1949122S23105 1949 27 SI WA NOT_NAMED 1949-05-02 18:00:00 NR -24.9032 107.475 main 596 564 __________P___ -1 -24.9032 107.475 7 6 124
1949122S23105 1949 27 SI WA NOT_NAMED 1949-05-02 21:00:00 NR -25.0116 107.790 main 564 528 __________P___ -1 -25.0116 107.790 7 7 90
1949122S23105 1949 27 SI WA NOT_NAMED 1949-05-03 00:00:00 NR -24.9000 108.200 main 528 465 __________O___ -1 -24.9000 108.200 7 11 59
1949122S23105 1949 27 SI WA NOT_NAMED 1949-05-03 03:00:00 NR -24.4413 108.820 main 465 401 __________P___ -1 -24.4413 108.820 7 17 46
1949122S23105 1949 27 SI WA NOT_NAMED 1949-05-03 06:00:00 NR -23.7635 109.513 main 401 357 __________P___ -1 -23.7635 109.513 7 19 40
1949122S23105 1949 27 SI WA NOT_NAMED 1949-05-03 09:00:00 NR -22.9785 110.173 main 351 299 __________P___ -1 -22.9785 110.173 7 19 35
1949122S23105 1949 27 SI WA NOT_NAMED 1949-05-03 12:00:00 NR -22.2000 110.700 main 301 285 __________O___ -1 -22.2000 110.700 7 17 28
1949122S23105 1949 27 SI WA NOT_NAMED 1949-05-03 15:00:00 NR -21.5185 111.023 main 294 290 __________P___ -1 -21.5185 111.023 7 14 19
1949122S23105 1949 27 SI WA NOT_NAMED 1949-05-03 18:00:00 NR -20.9283 111.175 main 309 309 __________P___ -1 -20.9283 111.175 7 11 9
1949122S23105 1949 27 SI WA NOT_NAMED 1949-05-03 21:00:00 NR -20.3990 111.215 main 335 335 __________P___ -1 -20.3990 111.215 7 10 2
1949122S23105 1949 27 SI WA NOT_NAMED 1949-05-04 00:00:00 NR -19.9000 111.200 main 366 __________O___ -1 -19.9000 111.200 7 10 0

IBTrACS Databaseについて

本データベースは、米国NOAAが公開する1842年以降の世界の熱帯低気圧のベストトラックデータアーカイブInternational Best Track Archive for Climate Stewardship (IBTrACS)を、ウェブで閲覧しやすい形式に変換したものです。

最終更新日:2021-10-19